Cornholme, United Kingdom
Current Conditions -  °F | °C
As of 12:50 PM on Wednesday 26 Nov 2014 (Local Time) from EGNM Reporting Station
Haze Haze  
Wind Chill: 41°   Ceiling: 300
Heat Index: 45°   Visibility: 1.8mi
Dew Point: 45°   Wind: 6mph
Humidity: 100%   Direction: 70°ENE
Pressure: 29.88"   Gusts: NA
Location:  53.73°N, 2.14°W
Report Text: EGNM 261250Z 07005KT 040V110 3000 BR SCT002 BKN003 07/07 Q1012
Loading
Personal Weather Stations






























Interactive Weather Map New forecast layout! Learn more

10-Day Weather Forecast

Advertisements
Track Severe Weather on mobile